sensor_id;sensor_type;location;lat;lon;timestamp;P1;durP1;ratioP1;P2;durP2;ratioP2
17604;SDS011;8921;50.964;6.800;2022-12-18T00:00:04;31.10;;;17.77;;
17604;SDS011;8921;50.964;6.800;2022-12-18T00:02:32;28.23;;;17.57;;
17604;SDS011;8921;50.964;6.800;2022-12-18T00:05:00;27.77;;;17.32;;
17604;SDS011;8921;50.964;6.800;2022-12-18T00:07:29;36.88;;;17.87;;
17604;SDS011;8921;50.964;6.800;2022-12-18T00:09:57;29.95;;;16.23;;
17604;SDS011;8921;50.964;6.800;2022-12-18T00:12:25;34.53;;;16.90;;
17604;SDS011;8921;50.964;6.800;2022-12-18T00:14:53;29.67;;;16.48;;
17604;SDS011;8921;50.964;6.800;2022-12-18T00:17:21;27.02;;;16.25;;
17604;SDS011;8921;50.964;6.800;2022-12-18T00:19:49;30.95;;;16.93;;
17604;SDS011;8921;50.964;6.800;2022-12-18T00:22:18;32.10;;;17.90;;
17604;SDS011;8921;50.964;6.800;2022-12-18T00:24:46;29.27;;;16.95;;
17604;SDS011;8921;50.964;6.800;2022-12-18T00:27:14;30.85;;;17.62;;
17604;SDS011;8921;50.964;6.800;2022-12-18T00:29:42;25.83;;;16.00;;
17604;SDS011;8921;50.964;6.800;2022-12-18T00:32:10;31.52;;;17.87;;
17604;SDS011;8921;50.964;6.800;2022-12-18T00:34:39;30.25;;;17.45;;
17604;SDS011;8921;50.964;6.800;2022-12-18T00:37:07;30.53;;;19.20;;
17604;SDS011;8921;50.964;6.800;2022-12-18T00:39:35;29.67;;;16.57;;
17604;SDS011;8921;50.964;6.800;2022-12-18T00:42:03;30.32;;;16.87;;
17604;SDS011;8921;50.964;6.800;2022-12-18T00:44:50;28.52;;;16.85;;
17604;SDS011;8921;50.964;6.800;2022-12-18T00:47:18;26.27;;;15.98;;
17604;SDS011;8921;50.964;6.800;2022-12-18T00:49:46;33.00;;;16.93;;
17604;SDS011;8921;50.964;6.800;2022-12-18T00:52:15;34.73;;;17.15;;
17604;SDS011;8921;50.964;6.800;2022-12-18T00:54:43;31.52;;;17.60;;
17604;SDS011;8921;50.964;6.800;2022-12-18T00:57:11;33.33;;;17.15;;
17604;SDS011;8921;50.964;6.800;2022-12-18T00:59:39;30.12;;;18.20;;
17604;SDS011;8921;50.964;6.800;2022-12-18T01:02:07;29.23;;;17.17;;
17604;SDS011;8921;50.964;6.800;2022-12-18T01:04:36;30.57;;;17.80;;
17604;SDS011;8921;50.964;6.800;2022-12-18T01:07:04;29.95;;;18.15;;
17604;SDS011;8921;50.964;6.800;2022-12-18T01:09:32;30.15;;;16.05;;
17604;SDS011;8921;50.964;6.800;2022-12-18T01:12:00;30.05;;;18.40;;
17604;SDS011;8921;50.964;6.800;2022-12-18T01:14:28;27.13;;;16.50;;
17604;SDS011;8921;50.964;6.800;2022-12-18T01:16:56;30.60;;;17.95;;
17604;SDS011;8921;50.964;6.800;2022-12-18T01:19:25;27.20;;;16.55;;
17604;SDS011;8921;50.964;6.800;2022-12-18T01:21:53;36.95;;;19.07;;
17604;SDS011;8921;50.964;6.800;2022-12-18T01:24:36;30.75;;;17.25;;
17604;SDS011;8921;50.964;6.800;2022-12-18T01:27:04;28.57;;;16.67;;
17604;SDS011;8921;50.964;6.800;2022-12-18T01:29:32;28.80;;;16.67;;
17604;SDS011;8921;50.964;6.800;2022-12-18T01:32:01;32.25;;;17.15;;
17604;SDS011;8921;50.964;6.800;2022-12-18T01:34:29;28.73;;;16.50;;
17604;SDS011;8921;50.964;6.800;2022-12-18T01:36:57;28.90;;;17.17;;
17604;SDS011;8921;50.964;6.800;2022-12-18T01:39:25;31.37;;;18.48;;
17604;SDS011;8921;50.964;6.800;2022-12-18T01:41:53;28.85;;;17.40;;
17604;SDS011;8921;50.964;6.800;2022-12-18T01:47:15;31.68;;;16.55;;
17604;SDS011;8921;50.964;6.800;2022-12-18T01:49:42;33.70;;;18.32;;
17604;SDS011;8921;50.964;6.800;2022-12-18T01:52:10;31.07;;;16.23;;
17604;SDS011;8921;50.964;6.800;2022-12-18T01:54:39;30.20;;;16.27;;
17604;SDS011;8921;50.964;6.800;2022-12-18T01:57:07;30.05;;;17.50;;
17604;SDS011;8921;50.964;6.800;2022-12-18T01:59:35;27.82;;;17.82;;
17604;SDS011;8921;50.964;6.800;2022-12-18T02:02:03;26.87;;;16.62;;
17604;SDS011;8921;50.964;6.800;2022-12-18T02:04:31;28.62;;;16.85;;
17604;SDS011;8921;50.964;6.800;2022-12-18T02:07:02;31.17;;;18.20;;
17604;SDS011;8921;50.964;6.800;2022-12-18T02:09:29;28.57;;;18.55;;
17604;SDS011;8921;50.964;6.800;2022-12-18T02:11:59;30.72;;;17.10;;
17604;SDS011;8921;50.964;6.800;2022-12-18T02:17:10;30.10;;;16.67;;
17604;SDS011;8921;50.964;6.800;2022-12-18T02:27:41;29.48;;;16.10;;
17604;SDS011;8921;50.964;6.800;2022-12-18T02:30:10;31.57;;;17.20;;
17604;SDS011;8921;50.964;6.800;2022-12-18T02:32:39;29.72;;;18.87;;
17604;SDS011;8921;50.964;6.800;2022-12-18T02:35:07;33.78;;;18.90;;
17604;SDS011;8921;50.964;6.800;2022-12-18T02:37:34;29.32;;;16.90;;
17604;SDS011;8921;50.964;6.800;2022-12-18T02:40:03;30.57;;;17.65;;
17604;SDS011;8921;50.964;6.800;2022-12-18T02:42:31;31.40;;;16.85;;
17604;SDS011;8921;50.964;6.800;2022-12-18T02:44:59;33.65;;;17.32;;
17604;SDS011;8921;50.964;6.800;2022-12-18T02:47:28;28.87;;;17.62;;
17604;SDS011;8921;50.964;6.800;2022-12-18T02:50:04;32.13;;;18.82;;
17604;SDS011;8921;50.964;6.800;2022-12-18T02:55:06;34.53;;;17.20;;
17604;SDS011;8921;50.964;6.800;2022-12-18T02:57:32;31.45;;;18.27;;
17604;SDS011;8921;50.964;6.800;2022-12-18T02:59:58;28.85;;;16.37;;
17604;SDS011;8921;50.964;6.800;2022-12-18T03:05:13;29.25;;;17.42;;
17604;SDS011;8921;50.964;6.800;2022-12-18T03:07:44;32.85;;;17.98;;
17604;SDS011;8921;50.964;6.800;2022-12-18T03:10:11;27.60;;;16.37;;
17604;SDS011;8921;50.964;6.800;2022-12-18T03:12:40;30.02;;;17.52;;
17604;SDS011;8921;50.964;6.800;2022-12-18T03:15:13;29.42;;;16.48;;
17604;SDS011;8921;50.964;6.800;2022-12-18T03:17:37;27.50;;;17.82;;
17604;SDS011;8921;50.964;6.800;2022-12-18T03:20:07;27.90;;;15.30;;
17604;SDS011;8921;50.964;6.800;2022-12-18T03:22:33;24.75;;;16.60;;
17604;SDS011;8921;50.964;6.800;2022-12-18T03:25:03;33.23;;;17.37;;
17604;SDS011;8921;50.964;6.800;2022-12-18T03:27:30;25.02;;;15.10;;
17604;SDS011;8921;50.964;6.800;2022-12-18T03:30:02;28.23;;;17.98;;
17604;SDS011;8921;50.964;6.800;2022-12-18T03:32:30;30.32;;;18.05;;
17604;SDS011;8921;50.964;6.800;2022-12-18T03:34:58;29.40;;;17.87;;
17604;SDS011;8921;50.964;6.800;2022-12-18T03:37:25;26.48;;;17.15;;
17604;SDS011;8921;50.964;6.800;2022-12-18T03:39:58;30.35;;;16.52;;
17604;SDS011;8921;50.964;6.800;2022-12-18T03:42:28;27.30;;;16.00;;
17604;SDS011;8921;50.964;6.800;2022-12-18T03:45:00;25.37;;;16.20;;
17604;SDS011;8921;50.964;6.800;2022-12-18T03:47:33;28.65;;;16.97;;
17604;SDS011;8921;50.964;6.800;2022-12-18T03:50:09;32.40;;;18.20;;
17604;SDS011;8921;50.964;6.800;2022-12-18T03:52:54;26.60;;;16.37;;
17604;SDS011;8921;50.964;6.800;2022-12-18T03:55:20;29.55;;;15.38;;
17604;SDS011;8921;50.964;6.800;2022-12-18T03:57:48;29.57;;;16.93;;
17604;SDS011;8921;50.964;6.800;2022-12-18T04:00:17;26.55;;;17.67;;
17604;SDS011;8921;50.964;6.800;2022-12-18T04:02:46;31.55;;;17.77;;
17604;SDS011;8921;50.964;6.800;2022-12-18T04:05:13;30.10;;;16.30;;
17604;SDS011;8921;50.964;6.800;2022-12-18T04:07:41;25.80;;;16.15;;
17604;SDS011;8921;50.964;6.800;2022-12-18T04:10:12;25.27;;;16.77;;
17604;SDS011;8921;50.964;6.800;2022-12-18T04:12:40;28.60;;;16.40;;
17604;SDS011;8921;50.964;6.800;2022-12-18T04:15:08;26.45;;;15.68;;
17604;SDS011;8921;50.964;6.800;2022-12-18T04:17:36;26.95;;;16.10;;
17604;SDS011;8921;50.964;6.800;2022-12-18T04:20:05;30.30;;;16.80;;
17604;SDS011;8921;50.964;6.800;2022-12-18T04:22:33;29.23;;;17.50;;
17604;SDS011;8921;50.964;6.800;2022-12-18T04:25:01;29.30;;;17.45;;
17604;SDS011;8921;50.964;6.800;2022-12-18T04:27:29;25.52;;;15.30;;
17604;SDS011;8921;50.964;6.800;2022-12-18T04:29:57;28.45;;;17.57;;
17604;SDS011;8921;50.964;6.800;2022-12-18T04:32:26;27.98;;;16.55;;
17604;SDS011;8921;50.964;6.800;2022-12-18T04:34:54;30.90;;;18.00;;
17604;SDS011;8921;50.964;6.800;2022-12-18T04:37:22;28.65;;;19.12;;
17604;SDS011;8921;50.964;6.800;2022-12-18T04:39:50;33.70;;;17.20;;
17604;SDS011;8921;50.964;6.800;2022-12-18T04:42:18;28.25;;;16.93;;
17604;SDS011;8921;50.964;6.800;2022-12-18T04:44:46;27.85;;;18.02;;
17604;SDS011;8921;50.964;6.800;2022-12-18T04:47:15;25.57;;;17.80;;
17604;SDS011;8921;50.964;6.800;2022-12-18T04:49:43;29.63;;;17.65;;
17604;SDS011;8921;50.964;6.800;2022-12-18T04:52:11;27.70;;;16.93;;
17604;SDS011;8921;50.964;6.800;2022-12-18T04:54:39;33.30;;;18.23;;
17604;SDS011;8921;50.964;6.800;2022-12-18T04:57:07;30.72;;;19.37;;
17604;SDS011;8921;50.964;6.800;2022-12-18T04:59:36;31.77;;;19.30;;
17604;SDS011;8921;50.964;6.800;2022-12-18T05:02:04;36.20;;;18.52;;
17604;SDS011;8921;50.964;6.800;2022-12-18T05:04:32;30.80;;;17.32;;
17604;SDS011;8921;50.964;6.800;2022-12-18T05:07:00;32.00;;;18.92;;
17604;SDS011;8921;50.964;6.800;2022-12-18T05:09:28;34.75;;;19.40;;
17604;SDS011;8921;50.964;6.800;2022-12-18T05:11:56;36.93;;;17.90;;
17604;SDS011;8921;50.964;6.800;2022-12-18T05:14:25;32.63;;;18.40;;
17604;SDS011;8921;50.964;6.800;2022-12-18T05:16:53;26.95;;;16.93;;
17604;SDS011;8921;50.964;6.800;2022-12-18T05:19:21;31.48;;;19.82;;
17604;SDS011;8921;50.964;6.800;2022-12-18T05:21:49;29.05;;;18.67;;
17604;SDS011;8921;50.964;6.800;2022-12-18T05:24:17;30.08;;;18.57;;
17604;SDS011;8921;50.964;6.800;2022-12-18T05:26:46;32.60;;;18.87;;
17604;SDS011;8921;50.964;6.800;2022-12-18T05:29:14;31.52;;;17.48;;
17604;SDS011;8921;50.964;6.800;2022-12-18T05:31:42;33.88;;;18.50;;
17604;SDS011;8921;50.964;6.800;2022-12-18T05:34:10;35.52;;;19.30;;
17604;SDS011;8921;50.964;6.800;2022-12-18T05:36:38;32.75;;;19.80;;
17604;SDS011;8921;50.964;6.800;2022-12-18T05:39:06;33.48;;;18.70;;
17604;SDS011;8921;50.964;6.800;2022-12-18T05:41:35;30.93;;;19.90;;
17604;SDS011;8921;50.964;6.800;2022-12-18T05:44:03;28.90;;;18.65;;
17604;SDS011;8921;50.964;6.800;2022-12-18T05:46:31;32.63;;;17.95;;
17604;SDS011;8921;50.964;6.800;2022-12-18T05:48:59;32.65;;;18.48;;
17604;SDS011;8921;50.964;6.800;2022-12-18T05:51:27;35.10;;;19.73;;
17604;SDS011;8921;50.964;6.800;2022-12-18T05:53:56;35.25;;;18.95;;
17604;SDS011;8921;50.964;6.800;2022-12-18T05:56:24;30.50;;;18.25;;
17604;SDS011;8921;50.964;6.800;2022-12-18T05:58:52;31.42;;;17.85;;
17604;SDS011;8921;50.964;6.800;2022-12-18T06:01:22;28.75;;;17.75;;
17604;SDS011;8921;50.964;6.800;2022-12-18T06:03:48;34.70;;;19.87;;
17604;SDS011;8921;50.964;6.800;2022-12-18T06:06:18;30.92;;;17.48;;
17604;SDS011;8921;50.964;6.800;2022-12-18T06:08:45;30.02;;;18.00;;
17604;SDS011;8921;50.964;6.800;2022-12-18T06:11:15;30.17;;;17.57;;
17604;SDS011;8921;50.964;6.800;2022-12-18T06:13:41;26.87;;;17.27;;
17604;SDS011;8921;50.964;6.800;2022-12-18T06:16:09;33.70;;;17.95;;
17604;SDS011;8921;50.964;6.800;2022-12-18T06:18:37;33.92;;;20.27;;
17604;SDS011;8921;50.964;6.800;2022-12-18T06:21:06;30.50;;;18.82;;
17604;SDS011;8921;50.964;6.800;2022-12-18T06:23:34;32.53;;;19.80;;
17604;SDS011;8921;50.964;6.800;2022-12-18T06:26:08;31.15;;;19.37;;
17604;SDS011;8921;50.964;6.800;2022-12-18T06:28:33;29.85;;;18.85;;
17604;SDS011;8921;50.964;6.800;2022-12-18T06:31:02;31.95;;;19.98;;
17604;SDS011;8921;50.964;6.800;2022-12-18T06:33:30;33.35;;;17.87;;
17604;SDS011;8921;50.964;6.800;2022-12-18T06:36:01;35.50;;;19.95;;
17604;SDS011;8921;50.964;6.800;2022-12-18T06:38:28;33.25;;;19.50;;
17604;SDS011;8921;50.964;6.800;2022-12-18T06:40:57;30.17;;;18.40;;
17604;SDS011;8921;50.964;6.800;2022-12-18T06:43:25;35.85;;;18.55;;
17604;SDS011;8921;50.964;6.800;2022-12-18T06:45:58;34.23;;;21.48;;
17604;SDS011;8921;50.964;6.800;2022-12-18T06:48:21;28.50;;;17.50;;
17604;SDS011;8921;50.964;6.800;2022-12-18T06:50:49;37.67;;;21.30;;
17604;SDS011;8921;50.964;6.800;2022-12-18T06:53:18;34.98;;;19.85;;
17604;SDS011;8921;50.964;6.800;2022-12-18T06:55:46;29.42;;;17.25;;
17604;SDS011;8921;50.964;6.800;2022-12-18T06:58:14;34.50;;;19.65;;
17604;SDS011;8921;50.964;6.800;2022-12-18T07:00:42;31.52;;;18.87;;
17604;SDS011;8921;50.964;6.800;2022-12-18T07:03:10;30.00;;;18.40;;
17604;SDS011;8921;50.964;6.800;2022-12-18T07:05:41;34.13;;;17.98;;
17604;SDS011;8921;50.964;6.800;2022-12-18T07:08:09;36.42;;;18.05;;
17604;SDS011;8921;50.964;6.800;2022-12-18T07:10:41;31.30;;;19.42;;
17604;SDS011;8921;50.964;6.800;2022-12-18T07:13:09;31.42;;;19.07;;
17604;SDS011;8921;50.964;6.800;2022-12-18T07:15:37;33.70;;;19.23;;
17604;SDS011;8921;50.964;6.800;2022-12-18T07:18:05;29.37;;;18.20;;
17604;SDS011;8921;50.964;6.800;2022-12-18T07:20:33;31.80;;;18.20;;
17604;SDS011;8921;50.964;6.800;2022-12-18T07:23:02;33.42;;;19.80;;
17604;SDS011;8921;50.964;6.800;2022-12-18T07:25:29;29.75;;;18.87;;
17604;SDS011;8921;50.964;6.800;2022-12-18T07:27:58;34.20;;;18.25;;
17604;SDS011;8921;50.964;6.800;2022-12-18T07:30:26;30.88;;;18.70;;
17604;SDS011;8921;50.964;6.800;2022-12-18T07:32:54;30.75;;;17.48;;
17604;SDS011;8921;50.964;6.800;2022-12-18T07:35:22;32.30;;;18.25;;
17604;SDS011;8921;50.964;6.800;2022-12-18T07:37:51;31.75;;;18.10;;
17604;SDS011;8921;50.964;6.800;2022-12-18T07:40:19;33.13;;;19.75;;
17604;SDS011;8921;50.964;6.800;2022-12-18T07:42:47;32.67;;;19.12;;
17604;SDS011;8921;50.964;6.800;2022-12-18T07:45:15;28.60;;;17.55;;
17604;SDS011;8921;50.964;6.800;2022-12-18T07:47:43;30.15;;;18.48;;
17604;SDS011;8921;50.964;6.800;2022-12-18T07:50:11;30.50;;;17.65;;
17604;SDS011;8921;50.964;6.800;2022-12-18T07:52:39;31.65;;;18.40;;
17604;SDS011;8921;50.964;6.800;2022-12-18T07:55:08;35.30;;;20.88;;
17604;SDS011;8921;50.964;6.800;2022-12-18T07:57:36;31.93;;;18.25;;
17604;SDS011;8921;50.964;6.800;2022-12-18T08:00:04;34.83;;;20.05;;
17604;SDS011;8921;50.964;6.800;2022-12-18T08:02:32;30.60;;;17.67;;
17604;SDS011;8921;50.964;6.800;2022-12-18T08:05:01;28.67;;;18.42;;
17604;SDS011;8921;50.964;6.800;2022-12-18T08:07:29;36.23;;;18.52;;
17604;SDS011;8921;50.964;6.800;2022-12-18T08:09:57;29.00;;;17.17;;
17604;SDS011;8921;50.964;6.800;2022-12-18T08:12:25;31.62;;;18.10;;
17604;SDS011;8921;50.964;6.800;2022-12-18T08:14:53;33.55;;;18.32;;
17604;SDS011;8921;50.964;6.800;2022-12-18T08:17:22;31.90;;;18.07;;
17604;SDS011;8921;50.964;6.800;2022-12-18T08:19:50;31.27;;;17.90;;
17604;SDS011;8921;50.964;6.800;2022-12-18T08:22:18;29.87;;;16.90;;
17604;SDS011;8921;50.964;6.800;2022-12-18T08:24:46;26.70;;;16.40;;
17604;SDS011;8921;50.964;6.800;2022-12-18T08:27:14;27.67;;;16.17;;
17604;SDS011;8921;50.964;6.800;2022-12-18T08:29:43;28.75;;;16.80;;
17604;SDS011;8921;50.964;6.800;2022-12-18T08:32:11;31.75;;;18.25;;
17604;SDS011;8921;50.964;6.800;2022-12-18T08:34:39;28.85;;;17.77;;
17604;SDS011;8921;50.964;6.800;2022-12-18T08:37:07;29.42;;;16.05;;
17604;SDS011;8921;50.964;6.800;2022-12-18T08:39:35;29.35;;;16.60;;
17604;SDS011;8921;50.964;6.800;2022-12-18T08:42:03;29.18;;;16.70;;
17604;SDS011;8921;50.964;6.800;2022-12-18T08:44:50;28.80;;;15.65;;
17604;SDS011;8921;50.964;6.800;2022-12-18T08:47:18;35.48;;;17.67;;
17604;SDS011;8921;50.964;6.800;2022-12-18T08:49:46;31.07;;;16.60;;
17604;SDS011;8921;50.964;6.800;2022-12-18T08:52:14;38.65;;;17.87;;
17604;SDS011;8921;50.964;6.800;2022-12-18T08:54:43;27.02;;;17.40;;
17604;SDS011;8921;50.964;6.800;2022-12-18T08:57:11;30.40;;;16.07;;
17604;SDS011;8921;50.964;6.800;2022-12-18T08:59:39;24.40;;;15.98;;
17604;SDS011;8921;50.964;6.800;2022-12-18T09:02:11;29.67;;;16.37;;
17604;SDS011;8921;50.964;6.800;2022-12-18T09:04:35;34.40;;;17.10;;
17604;SDS011;8921;50.964;6.800;2022-12-18T09:07:04;29.30;;;15.50;;
17604;SDS011;8921;50.964;6.800;2022-12-18T09:09:32;29.95;;;15.70;;
17604;SDS011;8921;50.964;6.800;2022-12-18T09:12:00;24.50;;;14.60;;
17604;SDS011;8921;50.964;6.800;2022-12-18T09:14:28;30.90;;;15.83;;
17604;SDS011;8921;50.964;6.800;2022-12-18T09:16:56;30.30;;;16.33;;
17604;SDS011;8921;50.964;6.800;2022-12-18T09:19:25;34.40;;;15.55;;
17604;SDS011;8921;50.964;6.800;2022-12-18T09:21:53;33.10;;;15.05;;
17604;SDS011;8921;50.964;6.800;2022-12-18T09:24:21;29.30;;;16.50;;
17604;SDS011;8921;50.964;6.800;2022-12-18T09:26:52;28.80;;;15.63;;
17604;SDS011;8921;50.964;6.800;2022-12-18T09:29:17;29.43;;;14.87;;
17604;SDS011;8921;50.964;6.800;2022-12-18T09:31:46;24.80;;;13.83;;
17604;SDS011;8921;50.964;6.800;2022-12-18T09:34:14;26.90;;;15.80;;
17604;SDS011;8921;50.964;6.800;2022-12-18T09:36:42;26.70;;;15.25;;
17604;SDS011;8921;50.964;6.800;2022-12-18T09:39:10;28.45;;;15.75;;
17604;SDS011;8921;50.964;6.800;2022-12-18T09:41:40;30.00;;;17.07;;
17604;SDS011;8921;50.964;6.800;2022-12-18T09:46:54;29.10;;;14.95;;
17604;SDS011;8921;50.964;6.800;2022-12-18T09:49:22;29.05;;;16.62;;
17604;SDS011;8921;50.964;6.800;2022-12-18T09:54:25;27.73;;;15.43;;
17604;SDS011;8921;50.964;6.800;2022-12-18T09:56:52;29.53;;;16.47;;
17604;SDS011;8921;50.964;6.800;2022-12-18T09:59:24;30.27;;;15.08;;
17604;SDS011;8921;50.964;6.800;2022-12-18T10:01:48;29.50;;;15.13;;
17604;SDS011;8921;50.964;6.800;2022-12-18T10:04:16;24.70;;;15.35;;
17604;SDS011;8921;50.964;6.800;2022-12-18T10:06:46;35.52;;;15.90;;
17604;SDS011;8921;50.964;6.800;2022-12-18T10:14:20;28.90;;;15.53;;
17604;SDS011;8921;50.964;6.800;2022-12-18T10:17:00;30.63;;;15.47;;
17604;SDS011;8921;50.964;6.800;2022-12-18T10:25:03;23.50;;;14.03;;
17604;SDS011;8921;50.964;6.800;2022-12-18T10:27:30;28.47;;;15.10;;
17604;SDS011;8921;50.964;6.800;2022-12-18T10:29:58;26.43;;;14.40;;
17604;SDS011;8921;50.964;6.800;2022-12-18T10:32:27;27.37;;;15.33;;
17604;SDS011;8921;50.964;6.800;2022-12-18T10:34:55;27.27;;;14.60;;
17604;SDS011;8921;50.964;6.800;2022-12-18T10:37:24;26.37;;;14.93;;
17604;SDS011;8921;50.964;6.800;2022-12-18T10:40:10;29.27;;;15.00;;
17604;SDS011;8921;50.964;6.800;2022-12-18T10:42:37;24.20;;;14.63;;
17604;SDS011;8921;50.964;6.800;2022-12-18T10:45:09;24.37;;;14.63;;
17604;SDS011;8921;50.964;6.800;2022-12-18T10:47:34;19.87;;;13.07;;
17604;SDS011;8921;50.964;6.800;2022-12-18T10:50:02;27.43;;;14.30;;
17604;SDS011;8921;50.964;6.800;2022-12-18T10:52:30;25.35;;;13.08;;
17604;SDS011;8921;50.964;6.800;2022-12-18T10:54:58;26.90;;;13.83;;
17604;SDS011;8921;50.964;6.800;2022-12-18T10:57:35;24.27;;;13.40;;
17604;SDS011;8921;50.964;6.800;2022-12-18T11:02:35;30.17;;;16.43;;
17604;SDS011;8921;50.964;6.800;2022-12-18T11:05:03;24.40;;;14.83;;
17604;SDS011;8921;50.964;6.800;2022-12-18T11:07:52;29.03;;;14.50;;
17604;SDS011;8921;50.964;6.800;2022-12-18T11:10:01;26.97;;;14.73;;
17604;SDS011;8921;50.964;6.800;2022-12-18T11:12:30;27.50;;;14.20;;
17604;SDS011;8921;50.964;6.800;2022-12-18T11:14:58;25.02;;;14.18;;
17604;SDS011;8921;50.964;6.800;2022-12-18T11:20:00;37.03;;;16.73;;
17604;SDS011;8921;50.964;6.800;2022-12-18T11:22:32;27.77;;;15.00;;
17604;SDS011;8921;50.964;6.800;2022-12-18T11:25:00;40.05;;;19.20;;
17604;SDS011;8921;50.964;6.800;2022-12-18T11:27:27;28.13;;;16.57;;
17604;SDS011;8921;50.964;6.800;2022-12-18T11:32:43;27.98;;;15.40;;
17604;SDS011;8921;50.964;6.800;2022-12-18T11:37:49;32.97;;;17.50;;
17604;SDS011;8921;50.964;6.800;2022-12-18T11:40:17;29.67;;;16.10;;
17604;SDS011;8921;50.964;6.800;2022-12-18T11:42:48;22.10;;;13.13;;
17604;SDS011;8921;50.964;6.800;2022-12-18T11:45:23;25.03;;;15.23;;
17604;SDS011;8921;50.964;6.800;2022-12-18T11:50:25;27.20;;;13.33;;
17604;SDS011;8921;50.964;6.800;2022-12-18T11:52:50;28.77;;;16.00;;
17604;SDS011;8921;50.964;6.800;2022-12-18T11:58:13;27.50;;;15.43;;
17604;SDS011;8921;50.964;6.800;2022-12-18T12:00:43;24.27;;;13.83;;
17604;SDS011;8921;50.964;6.800;2022-12-18T12:03:11;29.03;;;15.10;;
17604;SDS011;8921;50.964;6.800;2022-12-18T12:13:23;31.17;;;16.25;;
17604;SDS011;8921;50.964;6.800;2022-12-18T12:15:49;26.77;;;15.73;;
17604;SDS011;8921;50.964;6.800;2022-12-18T12:18:26;29.53;;;15.90;;
17604;SDS011;8921;50.964;6.800;2022-12-18T12:20:56;29.80;;;15.40;;
17604;SDS011;8921;50.964;6.800;2022-12-18T12:26:01;29.47;;;15.53;;
17604;SDS011;8921;50.964;6.800;2022-12-18T12:28:49;34.27;;;18.40;;
17604;SDS011;8921;50.964;6.800;2022-12-18T12:33:56;33.30;;;16.47;;
17604;SDS011;8921;50.964;6.800;2022-12-18T12:36:23;33.87;;;16.43;;
17604;SDS011;8921;50.964;6.800;2022-12-18T12:38:50;33.60;;;18.47;;
17604;SDS011;8921;50.964;6.800;2022-12-18T12:41:18;26.10;;;16.20;;
17604;SDS011;8921;50.964;6.800;2022-12-18T12:44:05;32.23;;;16.93;;
17604;SDS011;8921;50.964;6.800;2022-12-18T12:46:33;34.97;;;15.37;;
17604;SDS011;8921;50.964;6.800;2022-12-18T12:49:03;32.88;;;17.45;;
17604;SDS011;8921;50.964;6.800;2022-12-18T12:51:34;31.17;;;18.23;;
17604;SDS011;8921;50.964;6.800;2022-12-18T12:54:02;33.77;;;17.73;;
17604;SDS011;8921;50.964;6.800;2022-12-18T12:57:14;32.20;;;17.30;;
17604;SDS011;8921;50.964;6.800;2022-12-18T12:59:02;27.33;;;17.43;;
17604;SDS011;8921;50.964;6.800;2022-12-18T13:08:59;29.67;;;17.97;;
17604;SDS011;8921;50.964;6.800;2022-12-18T13:14:22;24.90;;;15.50;;
17604;SDS011;8921;50.964;6.800;2022-12-18T13:16:48;28.57;;;15.80;;
17604;SDS011;8921;50.964;6.800;2022-12-18T13:19:21;37.25;;;18.42;;
17604;SDS011;8921;50.964;6.800;2022-12-18T13:21:52;38.80;;;18.27;;
17604;SDS011;8921;50.964;6.800;2022-12-18T13:24:22;35.07;;;17.10;;
17604;SDS011;8921;50.964;6.800;2022-12-18T13:26:44;34.33;;;19.67;;
17604;SDS011;8921;50.964;6.800;2022-12-18T13:29:12;31.47;;;16.90;;
17604;SDS011;8921;50.964;6.800;2022-12-18T13:34:18;34.03;;;17.57;;
17604;SDS011;8921;50.964;6.800;2022-12-18T13:36:45;36.70;;;18.20;;
17604;SDS011;8921;50.964;6.800;2022-12-18T13:41:42;31.73;;;16.90;;
17604;SDS011;8921;50.964;6.800;2022-12-18T13:44:20;33.28;;;17.70;;
17604;SDS011;8921;50.964;6.800;2022-12-18T13:46:44;29.50;;;17.30;;
17604;SDS011;8921;50.964;6.800;2022-12-18T13:51:41;31.43;;;20.00;;
17604;SDS011;8921;50.964;6.800;2022-12-18T13:54:18;52.10;;;17.80;;
17604;SDS011;8921;50.964;6.800;2022-12-18T13:56:43;29.93;;;17.43;;
17604;SDS011;8921;50.964;6.800;2022-12-18T13:59:15;33.40;;;17.33;;
17604;SDS011;8921;50.964;6.800;2022-12-18T14:01:44;35.33;;;17.67;;
17604;SDS011;8921;50.964;6.800;2022-12-18T14:06:46;28.30;;;17.03;;
17604;SDS011;8921;50.964;6.800;2022-12-18T14:09:17;31.63;;;17.57;;
17604;SDS011;8921;50.964;6.800;2022-12-18T14:11:46;33.60;;;16.70;;
17604;SDS011;8921;50.964;6.800;2022-12-18T14:14:10;34.80;;;18.40;;
17604;SDS011;8921;50.964;6.800;2022-12-18T14:16:38;33.13;;;17.20;;
17604;SDS011;8921;50.964;6.800;2022-12-18T14:19:08;32.10;;;17.60;;
17604;SDS011;8921;50.964;6.800;2022-12-18T14:21:34;34.40;;;18.17;;
17604;SDS011;8921;50.964;6.800;2022-12-18T14:26:36;37.63;;;19.20;;
17604;SDS011;8921;50.964;6.800;2022-12-18T14:34:38;34.05;;;18.27;;
17604;SDS011;8921;50.964;6.800;2022-12-18T14:37:09;31.77;;;18.50;;
17604;SDS011;8921;50.964;6.800;2022-12-18T14:39:34;29.90;;;18.40;;
17604;SDS011;8921;50.964;6.800;2022-12-18T14:42:03;33.53;;;18.90;;
17604;SDS011;8921;50.964;6.800;2022-12-18T14:44:31;32.05;;;16.85;;
17604;SDS011;8921;50.964;6.800;2022-12-18T14:46:59;37.20;;;20.27;;
17604;SDS011;8921;50.964;6.800;2022-12-18T14:49:33;36.53;;;18.00;;
17604;SDS011;8921;50.964;6.800;2022-12-18T14:52:05;32.77;;;18.57;;
17604;SDS011;8921;50.964;6.800;2022-12-18T14:54:33;33.17;;;17.80;;
17604;SDS011;8921;50.964;6.800;2022-12-18T14:57:02;40.70;;;21.07;;
17604;SDS011;8921;50.964;6.800;2022-12-18T14:59:29;41.83;;;20.10;;
17604;SDS011;8921;50.964;6.800;2022-12-18T15:07:15;38.40;;;19.93;;
17604;SDS011;8921;50.964;6.800;2022-12-18T15:10:25;37.70;;;19.97;;
17604;SDS011;8921;50.964;6.800;2022-12-18T15:12:22;36.73;;;19.00;;
17604;SDS011;8921;50.964;6.800;2022-12-18T15:14:44;34.73;;;17.43;;
17604;SDS011;8921;50.964;6.800;2022-12-18T15:17:14;38.90;;;19.73;;
17604;SDS011;8921;50.964;6.800;2022-12-18T15:19:41;38.75;;;20.88;;
17604;SDS011;8921;50.964;6.800;2022-12-18T15:22:25;32.25;;;17.90;;
17604;SDS011;8921;50.964;6.800;2022-12-18T15:24:53;33.80;;;18.87;;
17604;SDS011;8921;50.964;6.800;2022-12-18T15:32:39;28.53;;;18.40;;
17604;SDS011;8921;50.964;6.800;2022-12-18T15:37:37;37.27;;;19.37;;
17604;SDS011;8921;50.964;6.800;2022-12-18T15:40:06;37.27;;;19.33;;
17604;SDS011;8921;50.964;6.800;2022-12-18T15:42:34;37.53;;;20.33;;
17604;SDS011;8921;50.964;6.800;2022-12-18T15:45:21;43.43;;;21.23;;
17604;SDS011;8921;50.964;6.800;2022-12-18T15:47:49;35.67;;;18.60;;
17604;SDS011;8921;50.964;6.800;2022-12-18T15:50:17;40.00;;;19.02;;
17604;SDS011;8921;50.964;6.800;2022-12-18T15:52:46;37.33;;;19.00;;
17604;SDS011;8921;50.964;6.800;2022-12-18T15:55:14;35.53;;;19.80;;
17604;SDS011;8921;50.964;6.800;2022-12-18T15:58:00;35.93;;;18.30;;
17604;SDS011;8921;50.964;6.800;2022-12-18T16:00:28;39.40;;;21.77;;
17604;SDS011;8921;50.964;6.800;2022-12-18T16:02:56;36.17;;;20.70;;
17604;SDS011;8921;50.964;6.800;2022-12-18T16:05:25;39.40;;;20.33;;
17604;SDS011;8921;50.964;6.800;2022-12-18T16:07:53;35.63;;;20.20;;
17604;SDS011;8921;50.964;6.800;2022-12-18T16:10:21;38.37;;;21.27;;
17604;SDS011;8921;50.964;6.800;2022-12-18T16:12:49;40.83;;;22.50;;
17604;SDS011;8921;50.964;6.800;2022-12-18T16:15:17;42.38;;;21.12;;
17604;SDS011;8921;50.964;6.800;2022-12-18T16:17:46;43.83;;;20.33;;
17604;SDS011;8921;50.964;6.800;2022-12-18T16:22:43;31.90;;;18.73;;
17604;SDS011;8921;50.964;6.800;2022-12-18T16:25:18;39.40;;;19.93;;
17604;SDS011;8921;50.964;6.800;2022-12-18T16:27:44;41.23;;;21.20;;
17604;SDS011;8921;50.964;6.800;2022-12-18T16:30:17;38.60;;;20.80;;